sensor_id;sensor_type;location;lat;lon;timestamp;pressure;altitude;pressure_sealevel;temperature;humidity
46946;BME280;32679;40.810;14.498;2022-08-21T00:00:46;99750.28;;;23.94;71.98
46946;BME280;32679;40.810;14.498;2022-08-21T00:03:12;99757.22;;;23.93;72.86
46946;BME280;32679;40.810;14.498;2022-08-21T00:05:39;99755.66;;;23.92;72.76
46946;BME280;32679;40.810;14.498;2022-08-21T00:08:05;99761.34;;;23.92;72.88
46946;BME280;32679;40.810;14.498;2022-08-21T00:10:30;99753.13;;;23.94;72.96
46946;BME280;32679;40.810;14.498;2022-08-21T00:12:56;99750.38;;;23.82;73.01
46946;BME280;32679;40.810;14.498;2022-08-21T00:15:23;99757.25;;;23.71;73.89
46946;BME280;32679;40.810;14.498;2022-08-21T00:17:48;99755.88;;;23.76;73.94
46946;BME280;32679;40.810;14.498;2022-08-21T00:20:14;99750.78;;;23.71;74.21
46946;BME280;32679;40.810;14.498;2022-08-21T00:22:40;99748.59;;;23.75;73.89
46946;BME280;32679;40.810;14.498;2022-08-21T00:25:06;99754.06;;;23.69;74.38
46946;BME280;32679;40.810;14.498;2022-08-21T00:27:32;99747.78;;;23.74;74.16
46946;BME280;32679;40.810;14.498;2022-08-21T00:29:57;99747.59;;;23.69;74.35
46946;BME280;32679;40.810;14.498;2022-08-21T00:32:23;99747.97;;;23.58;74.97
46946;BME280;32679;40.810;14.498;2022-08-21T00:34:49;99740.19;;;23.49;75.89
46946;BME280;32679;40.810;14.498;2022-08-21T00:37:15;99738.59;;;23.48;75.85
46946;BME280;32679;40.810;14.498;2022-08-21T00:39:40;99740.31;;;23.46;75.83
46946;BME280;32679;40.810;14.498;2022-08-21T00:42:05;99735.44;;;23.46;76.09
46946;BME280;32679;40.810;14.498;2022-08-21T00:44:31;99733.06;;;23.45;76.50
46946;BME280;32679;40.810;14.498;2022-08-21T00:46:56;99734.53;;;23.49;76.15
46946;BME280;32679;40.810;14.498;2022-08-21T00:49:22;99739.44;;;23.58;75.76
46946;BME280;32679;40.810;14.498;2022-08-21T00:51:51;99738.66;;;23.58;76.00
46946;BME280;32679;40.810;14.498;2022-08-21T00:54:19;99736.75;;;23.55;75.87
46946;BME280;32679;40.810;14.498;2022-08-21T00:56:50;99739.31;;;23.62;75.73
46946;BME280;32679;40.810;14.498;2022-08-21T00:59:18;99742.03;;;23.43;76.38
46946;BME280;32679;40.810;14.498;2022-08-21T01:01:44;99743.03;;;23.49;76.03
46946;BME280;32679;40.810;14.498;2022-08-21T01:04:09;99734.16;;;23.47;76.10
46946;BME280;32679;40.810;14.498;2022-08-21T01:06:35;99738.97;;;23.38;76.63
46946;BME280;32679;40.810;14.498;2022-08-21T01:09:00;99737.28;;;23.40;76.46
46946;BME280;32679;40.810;14.498;2022-08-21T01:11:25;99732.91;;;23.48;76.16
46946;BME280;32679;40.810;14.498;2022-08-21T01:13:51;99732.00;;;23.51;76.07
46946;BME280;32679;40.810;14.498;2022-08-21T01:16:17;99733.84;;;23.45;76.12
46946;BME280;32679;40.810;14.498;2022-08-21T01:18:47;99731.59;;;23.40;76.22
46946;BME280;32679;40.810;14.498;2022-08-21T01:23:39;99725.25;;;23.36;76.51
46946;BME280;32679;40.810;14.498;2022-08-21T01:26:05;99720.25;;;23.40;76.22
46946;BME280;32679;40.810;14.498;2022-08-21T01:28:33;99723.81;;;23.32;76.56
46946;BME280;32679;40.810;14.498;2022-08-21T01:30:59;99727.22;;;23.26;77.06
46946;BME280;32679;40.810;14.498;2022-08-21T01:33:26;99728.28;;;23.20;77.47
46946;BME280;32679;40.810;14.498;2022-08-21T01:35:52;99719.78;;;23.20;77.60
46946;BME280;32679;40.810;14.498;2022-08-21T01:38:18;99714.41;;;23.22;77.39
46946;BME280;32679;40.810;14.498;2022-08-21T01:40:43;99718.50;;;23.21;77.51
46946;BME280;32679;40.810;14.498;2022-08-21T01:43:08;99704.41;;;23.30;77.17
46946;BME280;32679;40.810;14.498;2022-08-21T01:45:34;99709.09;;;23.24;77.29
46946;BME280;32679;40.810;14.498;2022-08-21T01:47:59;99705.00;;;23.25;77.21
46946;BME280;32679;40.810;14.498;2022-08-21T01:50:25;99705.91;;;23.22;76.83
46946;BME280;32679;40.810;14.498;2022-08-21T01:52:50;99706.38;;;23.20;77.25
46946;BME280;32679;40.810;14.498;2022-08-21T01:55:16;99702.28;;;23.21;76.84
46946;BME280;32679;40.810;14.498;2022-08-21T01:57:43;99702.03;;;23.29;76.82
46946;BME280;32679;40.810;14.498;2022-08-21T02:00:10;99703.75;;;23.26;77.35
46946;BME280;32679;40.810;14.498;2022-08-21T02:02:37;99711.63;;;23.44;76.31
46946;BME280;32679;40.810;14.498;2022-08-21T02:05:02;99701.56;;;23.52;75.80
46946;BME280;32679;40.810;14.498;2022-08-21T02:07:35;99710.47;;;23.41;76.04
46946;BME280;32679;40.810;14.498;2022-08-21T02:10:00;99692.78;;;23.37;76.10
46946;BME280;32679;40.810;14.498;2022-08-21T02:12:25;99697.81;;;23.33;76.27
46946;BME280;32679;40.810;14.498;2022-08-21T02:14:51;99694.75;;;23.27;76.76
46946;BME280;32679;40.810;14.498;2022-08-21T02:17:16;99698.66;;;23.43;76.37
46946;BME280;32679;40.810;14.498;2022-08-21T02:19:42;99697.16;;;23.29;76.37
46946;BME280;32679;40.810;14.498;2022-08-21T02:22:09;99698.06;;;23.26;76.92
46946;BME280;32679;40.810;14.498;2022-08-21T02:24:35;99700.44;;;23.27;76.50
46946;BME280;32679;40.810;14.498;2022-08-21T02:27:00;99695.56;;;23.28;76.50
46946;BME280;32679;40.810;14.498;2022-08-21T02:29:26;99689.22;;;23.24;76.66
46946;BME280;32679;40.810;14.498;2022-08-21T02:31:51;99687.25;;;23.34;76.34
46946;BME280;32679;40.810;14.498;2022-08-21T02:34:16;99679.66;;;23.31;76.29
46946;BME280;32679;40.810;14.498;2022-08-21T02:36:41;99689.06;;;23.27;76.36
46946;BME280;32679;40.810;14.498;2022-08-21T02:39:07;99680.63;;;23.15;76.72
46946;BME280;32679;40.810;14.498;2022-08-21T02:41:32;99679.38;;;23.16;76.51
46946;BME280;32679;40.810;14.498;2022-08-21T02:43:58;99674.50;;;23.16;76.47
46946;BME280;32679;40.810;14.498;2022-08-21T02:46:23;99674.28;;;23.11;76.71
46946;BME280;32679;40.810;14.498;2022-08-21T02:48:48;99672.03;;;23.06;77.01
46946;BME280;32679;40.810;14.498;2022-08-21T02:51:18;99673.88;;;22.99;77.26
46946;BME280;32679;40.810;14.498;2022-08-21T02:53:44;99678.00;;;22.98;77.24
46946;BME280;32679;40.810;14.498;2022-08-21T02:56:11;99670.47;;;23.05;77.14
46946;BME280;32679;40.810;14.498;2022-08-21T02:58:38;99673.38;;;23.14;76.21
46946;BME280;32679;40.810;14.498;2022-08-21T03:01:04;99663.34;;;23.00;76.64
46946;BME280;32679;40.810;14.498;2022-08-21T03:03:29;99668.47;;;22.92;77.00
46946;BME280;32679;40.810;14.498;2022-08-21T03:05:54;99665.28;;;22.90;77.32
46946;BME280;32679;40.810;14.498;2022-08-21T03:08:21;99667.81;;;22.88;77.42
46946;BME280;32679;40.810;14.498;2022-08-21T03:10:48;99671.56;;;22.85;77.41
46946;BME280;32679;40.810;14.498;2022-08-21T03:13:14;99674.50;;;22.82;77.55
46946;BME280;32679;40.810;14.498;2022-08-21T03:15:40;99673.72;;;22.81;77.56
46946;BME280;32679;40.810;14.498;2022-08-21T03:18:06;99669.88;;;22.75;77.82
46946;BME280;32679;40.810;14.498;2022-08-21T03:20:32;99674.88;;;22.71;78.08
46946;BME280;32679;40.810;14.498;2022-08-21T03:22:58;99674.50;;;22.82;77.77
46946;BME280;32679;40.810;14.498;2022-08-21T03:25:24;99672.13;;;22.80;77.63
46946;BME280;32679;40.810;14.498;2022-08-21T03:27:50;99679.97;;;22.76;78.05
46946;BME280;32679;40.810;14.498;2022-08-21T03:30:15;99664.06;;;22.79;77.61
46946;BME280;32679;40.810;14.498;2022-08-21T03:32:41;99672.38;;;22.73;77.91
46946;BME280;32679;40.810;14.498;2022-08-21T03:35:06;99674.78;;;22.74;78.06
46946;BME280;32679;40.810;14.498;2022-08-21T03:37:32;99673.25;;;22.83;77.76
46946;BME280;32679;40.810;14.498;2022-08-21T03:39:57;99673.03;;;22.77;77.81
46946;BME280;32679;40.810;14.498;2022-08-21T03:42:23;99677.13;;;22.76;77.68
46946;BME280;32679;40.810;14.498;2022-08-21T03:44:48;99683.97;;;22.66;78.30
46946;BME280;32679;40.810;14.498;2022-08-21T03:47:13;99675.88;;;22.77;78.26
46946;BME280;32679;40.810;14.498;2022-08-21T03:49:39;99677.25;;;22.72;78.02
46946;BME280;32679;40.810;14.498;2022-08-21T03:52:04;99676.47;;;22.72;78.39
46946;BME280;32679;40.810;14.498;2022-08-21T03:54:30;99677.13;;;22.76;78.17
46946;BME280;32679;40.810;14.498;2022-08-21T03:56:55;99670.47;;;22.70;78.55
46946;BME280;32679;40.810;14.498;2022-08-21T03:59:21;99672.94;;;22.81;78.47
46946;BME280;32679;40.810;14.498;2022-08-21T04:01:59;99667.06;;;22.75;78.28
46946;BME280;32679;40.810;14.498;2022-08-21T04:04:25;99674.41;;;22.72;78.64
46946;BME280;32679;40.810;14.498;2022-08-21T04:06:51;99678.03;;;22.73;78.40
46946;BME280;32679;40.810;14.498;2022-08-21T04:09:17;99671.56;;;22.85;78.00
46946;BME280;32679;40.810;14.498;2022-08-21T04:11:42;99682.81;;;22.76;78.20
46946;BME280;32679;40.810;14.498;2022-08-21T04:14:08;99681.22;;;22.75;78.15
46946;BME280;32679;40.810;14.498;2022-08-21T04:16:33;99683.47;;;22.80;78.30
46946;BME280;32679;40.810;14.498;2022-08-21T04:18:59;99684.03;;;22.88;77.86
46946;BME280;32679;40.810;14.498;2022-08-21T04:21:26;99675.41;;;22.79;77.94
46946;BME280;32679;40.810;14.498;2022-08-21T04:23:53;99669.63;;;22.82;77.63
46946;BME280;32679;40.810;14.498;2022-08-21T04:26:19;99676.75;;;22.87;77.75
46946;BME280;32679;40.810;14.498;2022-08-21T04:28:44;99671.88;;;22.87;77.72
46946;BME280;32679;40.810;14.498;2022-08-21T04:31:09;99681.19;;;22.88;77.67
46946;BME280;32679;40.810;14.498;2022-08-21T04:33:35;99685.03;;;22.94;77.36
46946;BME280;32679;40.810;14.498;2022-08-21T04:36:00;99678.91;;;22.95;76.77
46946;BME280;32679;40.810;14.498;2022-08-21T04:38:26;99680.50;;;22.96;76.96
46946;BME280;32679;40.810;14.498;2022-08-21T04:40:52;99684.56;;;22.95;76.89
46946;BME280;32679;40.810;14.498;2022-08-21T04:43:17;99686.97;;;22.97;77.19
46946;BME280;32679;40.810;14.498;2022-08-21T04:45:45;99691.59;;;23.04;76.62
46946;BME280;32679;40.810;14.498;2022-08-21T04:48:12;99688.94;;;23.31;75.80
46946;BME280;32679;40.810;14.498;2022-08-21T04:53:07;99690.44;;;24.29;71.13
46946;BME280;32679;40.810;14.498;2022-08-21T04:55:33;99696.28;;;24.93;69.23
46946;BME280;32679;40.810;14.498;2022-08-21T04:57:59;99697.06;;;25.49;66.76
46946;BME280;32679;40.810;14.498;2022-08-21T05:00:25;99700.44;;;25.99;64.40
46946;BME280;32679;40.810;14.498;2022-08-21T05:02:51;99704.53;;;26.49;62.47
46946;BME280;32679;40.810;14.498;2022-08-21T05:05:19;99709.56;;;27.02;60.94
46946;BME280;32679;40.810;14.498;2022-08-21T05:07:45;99710.38;;;27.56;59.25
46946;BME280;32679;40.810;14.498;2022-08-21T05:10:10;99708.63;;;28.03;57.58
46946;BME280;32679;40.810;14.498;2022-08-21T05:12:36;99706.97;;;28.47;55.58
46946;BME280;32679;40.810;14.498;2022-08-21T05:15:02;99708.13;;;28.75;53.63
46946;BME280;32679;40.810;14.498;2022-08-21T05:17:28;99713.38;;;29.17;53.19
46946;BME280;32679;40.810;14.498;2022-08-21T05:19:54;99720.72;;;29.44;52.55
46946;BME280;32679;40.810;14.498;2022-08-21T05:22:20;99717.72;;;29.80;50.36
46946;BME280;32679;40.810;14.498;2022-08-21T05:24:46;99720.53;;;30.32;49.70
46946;BME280;32679;40.810;14.498;2022-08-21T05:27:11;99723.44;;;30.74;48.82
46946;BME280;32679;40.810;14.498;2022-08-21T05:29:37;99722.31;;;31.20;47.83
46946;BME280;32679;40.810;14.498;2022-08-21T05:32:07;99725.56;;;31.50;46.69
46946;BME280;32679;40.810;14.498;2022-08-21T05:34:33;99724.28;;;31.57;46.34
46946;BME280;32679;40.810;14.498;2022-08-21T05:36:58;99725.00;;;30.75;47.14
46946;BME280;32679;40.810;14.498;2022-08-21T05:39:23;99726.44;;;31.02;47.14
46946;BME280;32679;40.810;14.498;2022-08-21T05:41:49;99731.06;;;31.43;45.32
46946;BME280;32679;40.810;14.498;2022-08-21T05:44:14;99738.41;;;31.61;46.02
46946;BME280;32679;40.810;14.498;2022-08-21T05:46:39;99735.09;;;32.07;45.13
46946;BME280;32679;40.810;14.498;2022-08-21T05:49:05;99727.22;;;32.24;44.76
46946;BME280;32679;40.810;14.498;2022-08-21T05:51:30;99728.53;;;32.57;43.23
46946;BME280;32679;40.810;14.498;2022-08-21T05:53:56;99734.78;;;32.33;44.44
46946;BME280;32679;40.810;14.498;2022-08-21T05:56:24;99731.94;;;32.11;43.68
46946;BME280;32679;40.810;14.498;2022-08-21T05:58:49;99727.50;;;32.15;43.49
46946;BME280;32679;40.810;14.498;2022-08-21T06:01:15;99725.56;;;32.91;42.91
46946;BME280;32679;40.810;14.498;2022-08-21T06:03:41;99732.00;;;33.19;42.30
46946;BME280;32679;40.810;14.498;2022-08-21T06:06:07;99725.34;;;33.47;41.47
46946;BME280;32679;40.810;14.498;2022-08-21T06:08:33;99730.22;;;33.63;41.45
46946;BME280;32679;40.810;14.498;2022-08-21T06:10:59;99731.78;;;34.05;40.86
46946;BME280;32679;40.810;14.498;2022-08-21T06:13:25;99730.16;;;34.10;40.18
46946;BME280;32679;40.810;14.498;2022-08-21T06:16:00;99724.31;;;33.80;40.40
46946;BME280;32679;40.810;14.498;2022-08-21T06:18:26;99730.97;;;33.17;42.59
46946;BME280;32679;40.810;14.498;2022-08-21T06:20:51;99734.75;;;33.94;41.23
46946;BME280;32679;40.810;14.498;2022-08-21T06:23:19;99738.47;;;34.19;40.23
46946;BME280;32679;40.810;14.498;2022-08-21T06:25:45;99730.78;;;33.92;40.90
46946;BME280;32679;40.810;14.498;2022-08-21T06:28:11;99728.22;;;33.82;40.29
46946;BME280;32679;40.810;14.498;2022-08-21T06:30:38;99732.44;;;33.46;41.64
46946;BME280;32679;40.810;14.498;2022-08-21T06:33:03;99735.78;;;32.97;42.42
46946;BME280;32679;40.810;14.498;2022-08-21T06:35:29;99731.63;;;33.51;42.02
46946;BME280;32679;40.810;14.498;2022-08-21T06:37:55;99731.88;;;33.94;41.17
46946;BME280;32679;40.810;14.498;2022-08-21T06:40:20;99734.75;;;33.88;41.27
46946;BME280;32679;40.810;14.498;2022-08-21T06:42:46;99729.31;;;33.79;41.27
46946;BME280;32679;40.810;14.498;2022-08-21T06:45:12;99733.22;;;33.41;42.24
46946;BME280;32679;40.810;14.498;2022-08-21T06:47:37;99724.16;;;33.14;41.66
46946;BME280;32679;40.810;14.498;2022-08-21T06:50:03;99717.09;;;33.15;42.52
46946;BME280;32679;40.810;14.498;2022-08-21T06:52:29;99725.56;;;32.91;43.50
46946;BME280;32679;40.810;14.498;2022-08-21T06:54:55;99723.84;;;32.09;46.04
46946;BME280;32679;40.810;14.498;2022-08-21T06:57:20;99719.59;;;32.72;44.71
46946;BME280;32679;40.810;14.498;2022-08-21T06:59:47;99724.81;;;32.68;44.71
46946;BME280;32679;40.810;14.498;2022-08-21T07:02:12;99715.72;;;32.47;45.20
46946;BME280;32679;40.810;14.498;2022-08-21T07:04:38;99720.16;;;32.25;45.99
46946;BME280;32679;40.810;14.498;2022-08-21T07:07:03;99724.09;;;31.89;47.10
46946;BME280;32679;40.810;14.498;2022-08-21T07:09:28;99719.28;;;31.52;48.38
46946;BME280;32679;40.810;14.498;2022-08-21T07:11:54;99729.84;;;32.11;46.76
46946;BME280;32679;40.810;14.498;2022-08-21T07:14:20;99726.69;;;32.26;47.08
46946;BME280;32679;40.810;14.498;2022-08-21T07:16:46;99715.34;;;32.95;44.33
46946;BME280;32679;40.810;14.498;2022-08-21T07:19:14;99720.56;;;32.97;45.17
46946;BME280;32679;40.810;14.498;2022-08-21T07:21:39;99719.00;;;32.84;44.77
46946;BME280;32679;40.810;14.498;2022-08-21T07:24:04;99719.59;;;33.35;43.49
46946;BME280;32679;40.810;14.498;2022-08-21T07:26:30;99722.53;;;33.30;43.31
46946;BME280;32679;40.810;14.498;2022-08-21T07:28:55;99720.78;;;33.98;42.34
46946;BME280;32679;40.810;14.498;2022-08-21T07:31:21;99718.22;;;33.95;43.08
46946;BME280;32679;40.810;14.498;2022-08-21T07:33:47;99716.09;;;33.54;43.10
46946;BME280;32679;40.810;14.498;2022-08-21T07:36:13;99717.13;;;33.98;41.10
46946;BME280;32679;40.810;14.498;2022-08-21T07:38:38;99722.63;;;34.01;42.13
46946;BME280;32679;40.810;14.498;2022-08-21T07:41:06;99711.22;;;33.79;42.31
46946;BME280;32679;40.810;14.498;2022-08-21T07:43:32;99707.34;;;33.24;43.27
46946;BME280;32679;40.810;14.498;2022-08-21T07:45:57;99715.31;;;33.01;44.44
46946;BME280;32679;40.810;14.498;2022-08-21T07:48:23;99718.22;;;33.95;42.81
46946;BME280;32679;40.810;14.498;2022-08-21T07:50:48;99715.78;;;33.10;44.34
46946;BME280;32679;40.810;14.498;2022-08-21T07:53:15;99713.13;;;34.36;40.20
46946;BME280;32679;40.810;14.498;2022-08-21T07:55:40;99713.81;;;34.97;39.36
46946;BME280;32679;40.810;14.498;2022-08-21T07:58:06;99713.44;;;35.25;38.21
46946;BME280;32679;40.810;14.498;2022-08-21T08:00:31;99712.03;;;34.88;39.44
46946;BME280;32679;40.810;14.498;2022-08-21T08:02:57;99713.13;;;34.06;40.95
46946;BME280;32679;40.810;14.498;2022-08-21T08:05:24;99706.88;;;34.81;39.84
46946;BME280;32679;40.810;14.498;2022-08-21T08:07:49;99707.34;;;34.06;41.63
46946;BME280;32679;40.810;14.498;2022-08-21T08:10:16;99703.34;;;34.15;42.13
46946;BME280;32679;40.810;14.498;2022-08-21T08:12:41;99712.16;;;33.93;40.72
46946;BME280;32679;40.810;14.498;2022-08-21T08:15:08;99713.81;;;33.82;40.62
46946;BME280;32679;40.810;14.498;2022-08-21T08:17:34;99710.09;;;33.93;40.75
46946;BME280;32679;40.810;14.498;2022-08-21T08:19:59;99712.19;;;34.53;40.98
46946;BME280;32679;40.810;14.498;2022-08-21T08:22:28;99709.63;;;35.17;39.20
46946;BME280;32679;40.810;14.498;2022-08-21T08:24:53;99700.56;;;35.45;38.26
46946;BME280;32679;40.810;14.498;2022-08-21T08:27:19;99701.75;;;35.87;37.15
46946;BME280;32679;40.810;14.498;2022-08-21T08:29:45;99698.13;;;35.68;37.51
46946;BME280;32679;40.810;14.498;2022-08-21T08:32:11;99697.38;;;36.00;37.50
46946;BME280;32679;40.810;14.498;2022-08-21T08:34:37;99701.94;;;35.76;37.65
46946;BME280;32679;40.810;14.498;2022-08-21T08:37:04;99702.09;;;36.16;36.74
46946;BME280;32679;40.810;14.498;2022-08-21T08:39:29;99695.91;;;37.18;35.08
46946;BME280;32679;40.810;14.498;2022-08-21T08:42:04;99690.81;;;36.58;35.99
46946;BME280;32679;40.810;14.498;2022-08-21T08:44:30;99684.22;;;35.99;37.50
46946;BME280;32679;40.810;14.498;2022-08-21T08:46:56;99683.72;;;35.81;36.49
46946;BME280;32679;40.810;14.498;2022-08-21T08:54:55;99673.53;;;34.56;39.66
46946;BME280;32679;40.810;14.498;2022-08-21T08:57:14;99670.47;;;34.97;39.98
46946;BME280;32679;40.810;14.498;2022-08-21T08:59:44;99668.94;;;34.47;40.78
46946;BME280;32679;40.810;14.498;2022-08-21T09:02:13;99662.91;;;33.49;42.03
46946;BME280;32679;40.810;14.498;2022-08-21T09:04:38;99661.38;;;32.96;44.02
46946;BME280;32679;40.810;14.498;2022-08-21T09:20:37;99646.72;;;34.61;41.25
46946;BME280;32679;40.810;14.498;2022-08-21T09:25:33;99647.16;;;35.65;38.90
46946;BME280;32679;40.810;14.498;2022-08-21T09:28:03;99656.94;;;35.24;39.23
46946;BME280;32679;40.810;14.498;2022-08-21T09:30:32;99650.63;;;35.07;38.35
46946;BME280;32679;40.810;14.498;2022-08-21T09:32:57;99645.00;;;34.71;39.65
46946;BME280;32679;40.810;14.498;2022-08-21T09:35:23;99648.09;;;35.35;38.41
46946;BME280;32679;40.810;14.498;2022-08-21T09:40:45;99646.84;;;36.14;37.28
46946;BME280;32679;40.810;14.498;2022-08-21T09:45:36;99639.09;;;36.88;35.66
46946;BME280;32679;40.810;14.498;2022-08-21T09:48:11;99644.00;;;36.67;36.62
46946;BME280;32679;40.810;14.498;2022-08-21T09:50:37;99636.44;;;36.77;37.39
46946;BME280;32679;40.810;14.498;2022-08-21T09:53:03;99640.66;;;36.89;36.46
46946;BME280;32679;40.810;14.498;2022-08-21T09:58:13;99638.94;;;35.31;39.04
46946;BME280;32679;40.810;14.498;2022-08-21T10:00:39;99633.28;;;33.84;42.61
46946;BME280;32679;40.810;14.498;2022-08-21T10:03:18;99634.19;;;34.28;41.33
46946;BME280;32679;40.810;14.498;2022-08-21T10:05:52;99628.53;;;34.42;40.64
46946;BME280;32679;40.810;14.498;2022-08-21T10:08:19;99626.00;;;35.38;39.10
46946;BME280;32679;40.810;14.498;2022-08-21T10:10:45;99633.50;;;35.09;39.20
46946;BME280;32679;40.810;14.498;2022-08-21T10:21:15;99623.13;;;35.70;38.32
46946;BME280;32679;40.810;14.498;2022-08-21T10:23:51;99622.00;;;35.60;37.74
46946;BME280;32679;40.810;14.498;2022-08-21T10:32:09;99607.19;;;34.50;39.43
46946;BME280;32679;40.810;14.498;2022-08-21T10:34:48;99608.69;;;35.00;39.26
46946;BME280;32679;40.810;14.498;2022-08-21T10:40:01;99599.44;;;35.02;37.52
46946;BME280;32679;40.810;14.498;2022-08-21T10:45:11;99589.41;;;36.31;35.66
46946;BME280;32679;40.810;14.498;2022-08-21T10:47:44;99589.81;;;36.75;34.74
46946;BME280;32679;40.810;14.498;2022-08-21T10:50:21;99585.16;;;36.06;35.64
46946;BME280;32679;40.810;14.498;2022-08-21T10:55:23;99574.78;;;36.90;33.41
46946;BME280;32679;40.810;14.498;2022-08-21T10:57:54;99577.94;;;36.12;36.26
46946;BME280;32679;40.810;14.498;2022-08-21T11:00:23;99565.00;;;36.27;35.49
46946;BME280;32679;40.810;14.498;2022-08-21T11:03:00;99569.69;;;36.30;35.66
46946;BME280;32679;40.810;14.498;2022-08-21T11:05:30;99562.75;;;36.33;35.49
46946;BME280;32679;40.810;14.498;2022-08-21T11:10:32;99560.13;;;35.63;35.24
46946;BME280;32679;40.810;14.498;2022-08-21T11:13:00;99552.19;;;35.50;35.31
46946;BME280;32679;40.810;14.498;2022-08-21T11:15:28;99558.19;;;34.82;36.57
46946;BME280;32679;40.810;14.498;2022-08-21T11:18:01;99557.56;;;35.08;36.95
46946;BME280;32679;40.810;14.498;2022-08-21T11:20:32;99552.09;;;35.05;36.40
46946;BME280;32679;40.810;14.498;2022-08-21T11:23:01;99551.47;;;34.93;37.63
46946;BME280;32679;40.810;14.498;2022-08-21T11:25:34;99551.91;;;35.67;36.09
46946;BME280;32679;40.810;14.498;2022-08-21T11:28:08;99545.22;;;35.59;35.23
46946;BME280;32679;40.810;14.498;2022-08-21T11:33:30;99545.53;;;34.23;39.60
46946;BME280;32679;40.810;14.498;2022-08-21T11:36:00;99542.97;;;34.38;38.94
46946;BME280;32679;40.810;14.498;2022-08-21T11:38:39;99535.31;;;34.22;38.70
46946;BME280;32679;40.810;14.498;2022-08-21T11:47:11;99538.53;;;35.00;38.19
46946;BME280;32679;40.810;14.498;2022-08-21T11:49:39;99529.78;;;35.37;38.67
46946;BME280;32679;40.810;14.498;2022-08-21T11:52:13;99529.63;;;35.49;39.17
46946;BME280;32679;40.810;14.498;2022-08-21T11:54:50;99528.34;;;34.93;39.12
46946;BME280;32679;40.810;14.498;2022-08-21T11:59:59;99516.16;;;34.81;39.12
46946;BME280;32679;40.810;14.498;2022-08-21T12:02:28;99522.75;;;34.63;38.80
46946;BME280;32679;40.810;14.498;2022-08-21T12:04:55;99516.09;;;34.06;40.36
46946;BME280;32679;40.810;14.498;2022-08-21T12:07:43;99510.16;;;34.60;40.28
46946;BME280;32679;40.810;14.498;2022-08-21T12:10:08;99506.81;;;34.75;40.29
46946;BME280;32679;40.810;14.498;2022-08-21T12:12:35;99510.16;;;34.98;40.74
46946;BME280;32679;40.810;14.498;2022-08-21T12:17:37;99481.63;;;34.13;41.93
46946;BME280;32679;40.810;14.498;2022-08-21T12:20:17;99467.88;;;34.01;41.27
46946;BME280;32679;40.810;14.498;2022-08-21T12:22:47;99468.34;;;34.48;40.41
46946;BME280;32679;40.810;14.498;2022-08-21T12:25:16;99460.25;;;34.22;41.74
46946;BME280;32679;40.810;14.498;2022-08-21T12:27:46;99469.25;;;34.37;41.48
46946;BME280;32679;40.810;14.498;2022-08-21T12:33:01;99461.22;;;34.68;42.15
46946;BME280;32679;40.810;14.498;2022-08-21T12:35:40;99459.81;;;34.56;41.93
46946;BME280;32679;40.810;14.498;2022-08-21T12:38:29;99452.69;;;34.57;42.04
46946;BME280;32679;40.810;14.498;2022-08-21T12:40:58;99444.47;;;34.48;42.53
46946;BME280;32679;40.810;14.498;2022-08-21T12:43:27;99437.91;;;34.47;43.36
46946;BME280;32679;40.810;14.498;2022-08-21T12:45:54;99432.97;;;34.42;43.10
46946;BME280;32679;40.810;14.498;2022-08-21T12:48:25;99430.00;;;34.48;42.27
46946;BME280;32679;40.810;14.498;2022-08-21T12:50:53;99420.16;;;34.37;42.17
46946;BME280;32679;40.810;14.498;2022-08-21T12:56:04;99416.63;;;33.33;44.81
46946;BME280;32679;40.810;14.498;2022-08-21T12:58:30;99415.88;;;33.33;44.86
46946;BME280;32679;40.810;14.498;2022-08-21T13:03:23;99403.25;;;33.36;44.19
46946;BME280;32679;40.810;14.498;2022-08-21T13:05:49;99397.97;;;32.50;44.46
46946;BME280;32679;40.810;14.498;2022-08-21T13:08:18;99400.63;;;32.78;44.22
46946;BME280;32679;40.810;14.498;2022-08-21T13:10:44;99400.44;;;33.55;42.61
46946;BME280;32679;40.810;14.498;2022-08-21T13:13:16;99413.25;;;33.84;41.15
46946;BME280;32679;40.810;14.498;2022-08-21T13:15:42;99408.72;;;33.88;40.63
46946;BME280;32679;40.810;14.498;2022-08-21T13:18:08;99410.88;;;34.26;39.74
46946;BME280;32679;40.810;14.498;2022-08-21T13:20:44;99397.19;;;33.40;39.98
46946;BME280;32679;40.810;14.498;2022-08-21T13:23:28;99398.13;;;33.97;39.65
46946;BME280;32679;40.810;14.498;2022-08-21T13:25:54;99407.34;;;33.95;39.15
46946;BME280;32679;40.810;14.498;2022-08-21T13:28:20;99412.34;;;33.95;39.50
46946;BME280;32679;40.810;14.498;2022-08-21T13:30:46;99422.25;;;34.18;39.06
46946;BME280;32679;40.810;14.498;2022-08-21T13:33:13;99419.28;;;34.05;39.89
46946;BME280;32679;40.810;14.498;2022-08-21T13:35:47;99426.25;;;33.47;41.05
46946;BME280;32679;40.810;14.498;2022-08-21T13:38:13;99441.06;;;32.97;42.14
46946;BME280;32679;40.810;14.498;2022-08-21T13:40:44;99466.50;;;32.57;43.68
46946;BME280;32679;40.810;14.498;2022-08-21T13:43:12;99511.84;;;32.45;38.21
46946;BME280;32679;40.810;14.498;2022-08-21T13:45:42;99499.50;;;31.64;36.38
46946;BME280;32679;40.810;14.498;2022-08-21T13:48:08;99529.47;;;30.14;38.87
46946;BME280;32679;40.810;14.498;2022-08-21T13:50:33;99523.97;;;29.36;40.14
46946;BME280;32679;40.810;14.498;2022-08-21T13:53:02;99535.22;;;28.41;43.05
46946;BME280;32679;40.810;14.498;2022-08-21T13:55:41;99542.88;;;28.29;44.16
46946;BME280;32679;40.810;14.498;2022-08-21T13:58:07;99562.03;;;28.43;44.14
46946;BME280;32679;40.810;14.498;2022-08-21T14:00:34;99572.25;;;27.59;44.46
46946;BME280;32679;40.810;14.498;2022-08-21T14:03:03;99616.56;;;27.40;44.98
46946;BME280;32679;40.810;14.498;2022-08-21T14:05:30;99644.75;;;26.94;45.99
46946;BME280;32679;40.810;14.498;2022-08-21T14:07:59;99645.28;;;26.11;47.54
46946;BME280;32679;40.810;14.498;2022-08-21T14:10:26;99641.69;;;25.50;48.82